createdAt,value
2023-02-14T00:00:08.260Z,1.00
2023-02-14T00:02:36.895Z,1.00
2023-02-14T00:05:05.614Z,1.00
2023-02-14T00:07:34.421Z,1.00
2023-02-14T00:10:02.748Z,1.00
2023-02-14T00:12:31.425Z,1.00
2023-02-14T00:15:18.009Z,1.00
2023-02-14T00:17:46.361Z,1.00
2023-02-14T00:20:14.733Z,1.00
2023-02-14T00:22:43.223Z,1.00
2023-02-14T00:25:11.805Z,1.00
2023-02-14T00:27:41.310Z,1.00
2023-02-14T00:30:11.994Z,1.00
2023-02-14T00:32:41.856Z,1.00
2023-02-14T00:35:11.217Z,1.00
2023-02-14T00:37:42.117Z,1.00
2023-02-14T00:40:11.447Z,1.00
2023-02-14T00:42:41.531Z,1.00
2023-02-14T00:45:10.238Z,82.60
2023-02-14T00:47:38.583Z,99.90
2023-02-14T00:50:07.125Z,99.90
2023-02-14T00:52:35.510Z,99.90
2023-02-14T00:55:04.450Z,99.90
2023-02-14T00:57:32.941Z,99.90
2023-02-14T01:00:01.646Z,99.90
2023-02-14T01:02:32.019Z,99.90
2023-02-14T01:05:00.403Z,99.90
2023-02-14T01:07:28.554Z,99.90
2023-02-14T01:09:57.019Z,99.90
2023-02-14T01:12:25.707Z,99.90
2023-02-14T01:14:54.067Z,99.90
2023-02-14T01:17:22.884Z,99.90
2023-02-14T01:19:54.609Z,99.90
2023-02-14T01:22:22.890Z,99.90
2023-02-14T01:24:53.280Z,99.90
2023-02-14T01:27:22.363Z,99.90
2023-02-14T01:29:50.938Z,99.90
2023-02-14T01:32:20.486Z,99.90
2023-02-14T01:34:48.925Z,99.90
2023-02-14T01:37:18.913Z,99.90
2023-02-14T01:39:47.272Z,99.90
2023-02-14T01:42:15.866Z,99.90
2023-02-14T01:44:49.970Z,99.90
2023-02-14T01:47:18.579Z,99.90
2023-02-14T01:49:53.074Z,99.90
2023-02-14T01:52:38.659Z,99.90
2023-02-14T01:55:17.453Z,99.90
2023-02-14T01:58:05.113Z,99.90
2023-02-14T02:00:55.737Z,99.90
2023-02-14T02:03:32.164Z,99.90
2023-02-14T02:06:35.828Z,99.90
2023-02-14T02:09:20.875Z,99.90
2023-02-14T02:11:49.530Z,99.90
2023-02-14T02:14:21.210Z,99.90
2023-02-14T02:17:06.552Z,99.90
2023-02-14T02:19:41.206Z,99.90
2023-02-14T02:22:43.629Z,99.90
2023-02-14T02:25:39.638Z,99.90
2023-02-14T02:28:40.547Z,99.90
2023-02-14T02:31:21.598Z,99.90
2023-02-14T02:34:21.406Z,99.90
2023-02-14T02:37:08.319Z,99.90
2023-02-14T02:39:48.703Z,99.90
2023-02-14T02:42:42.861Z,99.90
2023-02-14T02:45:32.781Z,99.90
2023-02-14T02:48:09.402Z,99.90
2023-02-14T02:51:04.738Z,99.90
2023-02-14T02:53:58.228Z,99.90
2023-02-14T02:56:50.044Z,99.90
2023-02-14T02:59:30.967Z,99.90
2023-02-14T03:02:07.105Z,99.90
2023-02-14T03:04:55.318Z,99.90
2023-02-14T03:07:39.902Z,99.90
2023-02-14T03:10:20.592Z,99.90
2023-02-14T03:12:58.821Z,99.90
2023-02-14T03:15:52.466Z,99.90
2023-02-14T03:19:42.987Z,99.90
2023-02-14T03:22:32.890Z,99.90
2023-02-14T03:25:23.598Z,99.90
2023-02-14T03:28:11.682Z,99.90
2023-02-14T03:30:59.201Z,99.90
2023-02-14T03:33:40.519Z,99.90
2023-02-14T03:36:15.029Z,99.90
2023-02-14T03:38:57.783Z,99.90
2023-02-14T03:41:33.077Z,99.90
2023-02-14T03:44:07.689Z,99.90
2023-02-14T03:46:43.220Z,99.90
2023-02-14T03:49:20.230Z,99.90
2023-02-14T03:51:57.435Z,99.90
2023-02-14T03:54:47.234Z,99.90
2023-02-14T03:57:26.516Z,99.90
2023-02-14T04:00:03.719Z,99.90
2023-02-14T04:03:30.665Z,99.90
2023-02-14T04:06:14.664Z,99.90
2023-02-14T04:09:49.230Z,99.90
2023-02-14T04:12:50.189Z,99.90
2023-02-14T04:16:06.906Z,99.90
2023-02-14T04:19:07.431Z,99.90
2023-02-14T04:26:04.315Z,99.90
2023-02-14T04:33:56.335Z,99.90
2023-02-14T04:53:46.162Z,99.90
2023-02-14T05:01:33.065Z,99.90
2023-02-14T05:10:43.173Z,99.90
2023-02-14T05:18:27.067Z,99.90
2023-02-14T05:20:55.348Z,99.90
2023-02-14T05:23:23.594Z,99.90
2023-02-14T05:25:52.454Z,99.90
2023-02-14T05:28:20.937Z,99.90
2023-02-14T05:30:53.824Z,99.90
2023-02-14T05:33:28.041Z,99.90
2023-02-14T05:35:58.466Z,99.90
2023-02-14T05:38:26.533Z,99.90
2023-02-14T05:40:54.446Z,99.90
2023-02-14T05:43:22.291Z,99.90
2023-02-14T05:45:50.161Z,99.90
2023-02-14T05:48:18.220Z,99.90
2023-02-14T05:50:46.102Z,99.90
2023-02-14T05:53:14.175Z,99.90
2023-02-14T05:55:42.329Z,99.90
2023-02-14T05:58:35.959Z,99.90
2023-02-14T06:01:04.797Z,99.90
2023-02-14T06:03:32.729Z,99.90
2023-02-14T06:06:02.913Z,99.90
2023-02-14T06:08:30.926Z,99.90
2023-02-14T06:10:59.192Z,99.90
2023-02-14T06:13:27.302Z,99.90
2023-02-14T06:15:55.279Z,99.90
2023-02-14T06:18:27.647Z,99.90
2023-02-14T06:20:55.925Z,99.90
2023-02-14T06:23:24.410Z,99.90
2023-02-14T06:25:52.357Z,99.90
2023-02-14T06:28:20.337Z,99.90
2023-02-14T06:30:48.400Z,99.90
2023-02-14T06:33:16.430Z,99.90
2023-02-14T06:35:44.345Z,99.90
2023-02-14T06:38:12.319Z,99.90
2023-02-14T06:40:40.271Z,99.90
2023-02-14T06:43:08.813Z,99.90
2023-02-14T06:45:36.890Z,99.90
2023-02-14T06:48:05.037Z,99.90
2023-02-14T06:50:33.341Z,99.90
2023-02-14T06:53:01.530Z,99.90
2023-02-14T06:55:29.415Z,99.90
2023-02-14T06:57:57.324Z,99.90
2023-02-14T07:00:25.269Z,99.90
2023-02-14T07:02:53.168Z,99.90
2023-02-14T07:05:22.021Z,99.90
2023-02-14T07:07:50.073Z,99.90
2023-02-14T07:10:18.151Z,99.90
2023-02-14T07:12:46.010Z,99.90
2023-02-14T07:15:14.270Z,99.90
2023-02-14T07:17:42.529Z,99.90
2023-02-14T07:20:12.143Z,99.90
2023-02-14T07:22:40.562Z,99.90
2023-02-14T07:25:09.261Z,99.90
2023-02-14T07:27:37.705Z,99.90
2023-02-14T07:30:08.399Z,99.90
2023-02-14T07:32:41.194Z,99.90
2023-02-14T07:35:09.710Z,99.90
2023-02-14T07:37:37.734Z,99.90
2023-02-14T07:40:12.499Z,99.90
2023-02-14T07:42:43.627Z,99.90
2023-02-14T07:45:21.088Z,99.90
2023-02-14T07:47:55.019Z,99.90
2023-02-14T07:50:23.779Z,99.90
2023-02-14T07:52:52.404Z,15.50
2023-02-14T07:55:20.458Z,1.00
2023-02-14T07:57:49.354Z,1.00
2023-02-14T08:00:18.632Z,1.00
2023-02-14T08:02:47.264Z,99.90
2023-02-14T08:05:16.144Z,1.00
2023-02-14T08:07:44.468Z,1.00
2023-02-14T08:10:13.336Z,99.90
2023-02-14T08:12:59.854Z,1.00
2023-02-14T08:15:52.096Z,99.90
2023-02-14T08:18:23.322Z,99.90
2023-02-14T08:20:51.680Z,1.00
2023-02-14T08:23:20.526Z,99.90
2023-02-14T08:25:50.156Z,99.90
2023-02-14T08:28:18.704Z,99.90
2023-02-14T08:30:47.471Z,99.90
2023-02-14T08:33:15.473Z,1.00
2023-02-14T08:35:43.953Z,99.90
2023-02-14T08:38:12.504Z,99.90
2023-02-14T08:40:40.440Z,99.90
2023-02-14T08:43:09.485Z,99.90
2023-02-14T08:45:38.170Z,99.90
2023-02-14T08:48:09.501Z,99.90
2023-02-14T08:50:38.199Z,99.90
2023-02-14T08:53:11.353Z,99.90
2023-02-14T08:55:40.857Z,99.90
2023-02-14T08:58:09.102Z,99.80
2023-02-14T09:00:37.196Z,1.00
2023-02-14T09:03:05.645Z,1.00
2023-02-14T09:05:34.531Z,1.00
2023-02-14T09:08:03.898Z,1.00
2023-02-14T09:10:32.238Z,1.00
2023-02-14T09:13:00.352Z,1.00
2023-02-14T09:15:28.530Z,1.00
2023-02-14T09:17:56.754Z,1.00
2023-02-14T09:20:25.632Z,99.90
2023-02-14T09:22:57.319Z,99.90
2023-02-14T09:25:27.069Z,99.90
2023-02-14T09:27:54.995Z,99.90
2023-02-14T09:30:23.030Z,99.90
2023-02-14T09:32:53.001Z,99.90
2023-02-14T09:35:21.129Z,99.90
2023-02-14T09:38:07.900Z,99.90
2023-02-14T09:40:35.944Z,99.90
2023-02-14T09:43:07.470Z,99.90
2023-02-14T09:45:36.726Z,99.90
2023-02-14T09:48:05.318Z,99.90
2023-02-14T09:50:56.586Z,99.90
2023-02-14T09:53:32.012Z,99.90
2023-02-14T09:56:06.043Z,74.00
2023-02-14T09:58:40.914Z,49.50
2023-02-14T10:01:25.978Z,47.80
2023-02-14T10:04:24.839Z,36.20
2023-02-14T10:07:09.728Z,6.10
2023-02-14T10:09:41.452Z,2.40
2023-02-14T10:12:23.618Z,1.00
2023-02-14T10:14:55.675Z,1.00
2023-02-14T10:17:47.244Z,1.00
2023-02-14T10:20:32.301Z,1.00
2023-02-14T10:23:34.955Z,1.00
2023-02-14T10:26:16.486Z,1.00
2023-02-14T10:28:47.394Z,1.00
2023-02-14T10:31:24.781Z,1.00
2023-02-14T10:34:09.748Z,1.00
2023-02-14T10:36:49.672Z,1.00
2023-02-14T10:39:51.815Z,1.00
2023-02-14T10:42:37.536Z,1.00
2023-02-14T10:45:37.696Z,1.00
2023-02-14T10:48:30.424Z,1.00
2023-02-14T10:51:25.964Z,1.00
2023-02-14T10:54:15.521Z,1.00
2023-02-14T10:56:50.584Z,1.00
2023-02-14T10:59:49.489Z,1.00
2023-02-14T11:02:20.756Z,1.00
2023-02-14T11:04:49.915Z,1.00
2023-02-14T11:07:21.760Z,1.00
2023-02-14T11:09:50.248Z,1.00
2023-02-14T11:12:40.026Z,1.00
2023-02-14T11:15:24.020Z,1.00
2023-02-14T11:18:23.005Z,1.00
2023-02-14T11:21:15.155Z,1.00
2023-02-14T11:23:45.672Z,1.00
2023-02-14T11:26:30.162Z,1.00
2023-02-14T11:29:04.321Z,1.00
2023-02-14T11:31:40.377Z,1.00
2023-02-14T11:34:33.180Z,1.00
2023-02-14T11:37:01.383Z,1.00
2023-02-14T11:39:32.989Z,1.00
2023-02-14T11:42:05.447Z,1.00
2023-02-14T11:44:36.956Z,1.00
2023-02-14T11:47:32.646Z,1.00
2023-02-14T11:50:06.196Z,1.00
2023-02-14T11:52:39.627Z,1.00
2023-02-14T11:55:07.629Z,1.00
2023-02-14T11:57:39.063Z,1.00
2023-02-14T12:00:20.429Z,1.00
2023-02-14T12:02:53.219Z,1.00
2023-02-14T12:05:27.535Z,1.00
2023-02-14T12:08:02.362Z,1.00
2023-02-14T12:10:38.875Z,1.00
2023-02-14T12:13:09.959Z,1.00
2023-02-14T12:15:38.055Z,1.00
2023-02-14T12:18:12.324Z,1.00
2023-02-14T12:20:51.988Z,1.00
2023-02-14T12:23:25.725Z,1.00
2023-02-14T12:26:11.941Z,1.00
2023-02-14T12:28:48.665Z,1.00
2023-02-14T12:31:17.493Z,1.00
2023-02-14T12:33:47.503Z,1.00
2023-02-14T12:36:19.226Z,1.00
2023-02-14T12:39:12.714Z,1.00
2023-02-14T12:42:00.219Z,1.00
2023-02-14T12:44:54.297Z,1.00
2023-02-14T12:47:40.662Z,1.00
2023-02-14T12:50:31.664Z,1.00
2023-02-14T12:53:11.426Z,1.00
2023-02-14T12:56:11.171Z,1.00
2023-02-14T12:58:49.742Z,1.00
2023-02-14T13:01:44.468Z,1.00
2023-02-14T13:04:32.526Z,1.00
2023-02-14T13:07:04.963Z,1.00
2023-02-14T13:10:08.223Z,1.00
2023-02-14T13:12:52.321Z,1.00
2023-02-14T13:16:05.027Z,1.00
2023-02-14T13:18:44.885Z,1.00
2023-02-14T13:21:16.547Z,1.00
2023-02-14T13:23:48.510Z,1.00
2023-02-14T13:26:21.130Z,1.00
2023-02-14T13:28:58.780Z,1.00
2023-02-14T13:31:27.632Z,1.00
2023-02-14T13:34:03.357Z,1.00
2023-02-14T13:36:32.655Z,1.00
2023-02-14T13:39:01.486Z,1.00
2023-02-14T13:41:30.367Z,1.00
2023-02-14T13:44:01.772Z,1.00
2023-02-14T13:46:33.091Z,1.00
2023-02-14T13:49:24.440Z,1.00
2023-02-14T13:52:03.899Z,1.00
2023-02-14T13:54:36.180Z,1.00
2023-02-14T13:57:36.801Z,1.00
2023-02-14T14:00:20.530Z,1.00
2023-02-14T14:02:50.069Z,1.00
2023-02-14T14:05:30.959Z,1.00
2023-02-14T14:08:20.335Z,1.00
2023-02-14T14:11:00.053Z,1.00
2023-02-14T14:13:43.189Z,1.00
2023-02-14T14:16:29.405Z,1.00
2023-02-14T14:19:09.067Z,1.00
2023-02-14T14:21:43.644Z,1.00
2023-02-14T14:24:41.789Z,1.00
2023-02-14T14:27:24.034Z,1.00
2023-02-14T14:30:03.275Z,1.00
2023-02-14T14:32:37.087Z,1.00
2023-02-14T14:35:08.591Z,1.00
2023-02-14T14:37:46.426Z,1.00
2023-02-14T14:40:39.785Z,1.00
2023-02-14T14:43:14.822Z,1.00
2023-02-14T14:45:46.644Z,1.00
2023-02-14T14:48:38.921Z,1.00
2023-02-14T14:51:09.138Z,1.00
2023-02-14T14:53:47.258Z,1.00
2023-02-14T14:56:23.381Z,1.00
2023-02-14T14:58:52.559Z,1.00
2023-02-14T15:01:36.440Z,1.00
2023-02-14T15:04:25.540Z,1.00
2023-02-14T15:06:55.579Z,1.00
2023-02-14T15:09:31.823Z,1.00
2023-02-14T15:12:20.796Z,1.00
2023-02-14T15:14:54.881Z,1.00
2023-02-14T15:17:31.575Z,1.00
2023-02-14T15:20:03.175Z,1.00
2023-02-14T15:22:44.531Z,1.00
2023-02-14T15:25:25.853Z,1.00
2023-02-14T15:27:54.206Z,1.00
2023-02-14T15:30:30.843Z,1.00
2023-02-14T15:33:00.228Z,1.00
2023-02-14T15:35:32.160Z,1.00
2023-02-14T15:38:04.381Z,1.00
2023-02-14T15:40:34.860Z,1.00
2023-02-14T15:43:33.791Z,1.00
2023-02-14T15:46:21.106Z,1.00
2023-02-14T15:48:49.947Z,1.00
2023-02-14T15:51:24.661Z,1.00
2023-02-14T15:54:01.524Z,1.00
2023-02-14T15:56:34.023Z,1.00
2023-02-14T15:59:07.706Z,1.00
2023-02-14T16:01:37.979Z,1.00
2023-02-14T16:04:07.165Z,1.00
2023-02-14T16:06:40.646Z,1.00
2023-02-14T16:09:30.343Z,1.00
2023-02-14T16:11:58.771Z,1.00
2023-02-14T16:14:37.655Z,1.00
2023-02-14T16:17:15.649Z,1.00
2023-02-14T16:19:46.612Z,1.00
2023-02-14T16:22:32.248Z,1.00
2023-02-14T16:25:01.439Z,1.00
2023-02-14T16:27:30.979Z,1.00
2023-02-14T16:29:59.369Z,1.00
2023-02-14T16:32:27.948Z,1.00
2023-02-14T16:34:57.272Z,1.00
2023-02-14T16:37:33.317Z,1.00
2023-02-14T16:40:19.439Z,1.00
2023-02-14T16:42:47.692Z,1.00
2023-02-14T16:45:18.302Z,1.00
2023-02-14T16:47:47.905Z,1.00
2023-02-14T16:50:20.694Z,1.00
2023-02-14T16:52:51.800Z,1.00
2023-02-14T16:55:20.689Z,1.00
2023-02-14T16:57:50.384Z,1.00
2023-02-14T17:00:19.208Z,1.00
2023-02-14T17:02:47.627Z,1.00
2023-02-14T17:05:16.602Z,15.10
2023-02-14T17:07:44.797Z,47.90
2023-02-14T17:10:20.043Z,99.90
2023-02-14T17:12:49.731Z,99.90
2023-02-14T17:15:21.693Z,99.90
2023-02-14T17:17:50.878Z,99.90
2023-02-14T17:20:20.482Z,1.00
2023-02-14T17:22:49.852Z,1.00
2023-02-14T17:25:18.220Z,1.00
2023-02-14T17:27:46.791Z,1.00
2023-02-14T17:30:15.941Z,1.00
2023-02-14T17:32:44.833Z,1.00
2023-02-14T17:35:14.744Z,99.90
2023-02-14T17:37:43.179Z,1.00
2023-02-14T17:40:12.430Z,1.00
2023-02-14T17:42:41.207Z,1.00
2023-02-14T17:45:11.949Z,1.00
2023-02-14T17:47:41.134Z,45.50
2023-02-14T17:50:09.916Z,99.90
2023-02-14T17:52:38.092Z,99.90
2023-02-14T17:55:07.015Z,99.90
2023-02-14T17:57:36.990Z,99.90
2023-02-14T18:00:10.065Z,99.90
2023-02-14T18:02:42.066Z,1.00
2023-02-14T18:05:12.604Z,1.00
2023-02-14T18:07:41.138Z,99.90
2023-02-14T18:10:09.678Z,99.90
2023-02-14T18:12:38.469Z,1.00
2023-02-14T18:15:07.339Z,1.00
2023-02-14T18:17:36.152Z,1.00
2023-02-14T18:20:05.478Z,1.00
2023-02-14T18:22:33.423Z,1.00
2023-02-14T18:25:01.558Z,1.00
2023-02-14T18:27:31.192Z,1.00
2023-02-14T18:29:59.500Z,1.00
2023-02-14T18:32:27.881Z,99.90
2023-02-14T18:34:55.824Z,1.00
2023-02-14T18:37:24.178Z,1.00
2023-02-14T18:39:52.163Z,1.00
2023-02-14T18:42:20.860Z,1.00
2023-02-14T18:44:48.843Z,1.00
2023-02-14T18:47:17.236Z,1.00
2023-02-14T18:49:45.195Z,1.00
2023-02-14T18:52:14.185Z,1.00
2023-02-14T18:54:42.664Z,1.00
2023-02-14T18:57:10.918Z,99.90
2023-02-14T18:59:39.858Z,1.00
2023-02-14T19:02:09.128Z,1.00
2023-02-14T19:04:37.679Z,99.90
2023-02-14T19:07:06.343Z,99.90
2023-02-14T19:09:39.770Z,99.90
2023-02-14T19:12:07.782Z,99.90
2023-02-14T19:14:36.299Z,99.90
2023-02-14T19:17:05.274Z,99.90
2023-02-14T19:19:33.384Z,1.00
2023-02-14T19:22:02.685Z,1.00
2023-02-14T19:24:30.860Z,99.90
2023-02-14T19:26:59.072Z,1.00
2023-02-14T19:29:27.281Z,99.90
2023-02-14T19:31:55.677Z,99.90
2023-02-14T19:34:29.574Z,1.00
2023-02-14T19:37:00.607Z,99.90
2023-02-14T19:39:30.118Z,99.90
2023-02-14T19:41:59.600Z,1.00
2023-02-14T19:44:29.380Z,99.90
2023-02-14T19:47:00.349Z,99.90
2023-02-14T19:49:29.298Z,58.00
2023-02-14T19:51:58.898Z,1.00
2023-02-14T19:54:27.082Z,1.00
2023-02-14T19:56:58.363Z,31.80
2023-02-14T19:59:28.263Z,99.90
2023-02-14T20:01:58.371Z,99.90
2023-02-14T20:04:29.361Z,1.00
2023-02-14T20:06:57.832Z,1.00
2023-02-14T20:09:26.324Z,1.00
2023-02-14T20:11:57.114Z,99.90
2023-02-14T20:14:28.934Z,1.00
2023-02-14T20:16:58.798Z,99.90
2023-02-14T20:19:29.531Z,1.00
2023-02-14T20:21:59.000Z,1.00
2023-02-14T20:24:29.430Z,58.80
2023-02-14T20:26:58.560Z,99.90
2023-02-14T20:29:27.417Z,1.00
2023-02-14T20:32:03.508Z,1.00
2023-02-14T20:34:32.494Z,1.00
2023-02-14T20:37:00.901Z,1.00
2023-02-14T20:39:34.926Z,7.60
2023-02-14T20:42:03.846Z,11.60
2023-02-14T20:44:32.750Z,23.20
2023-02-14T20:47:00.766Z,37.20
2023-02-14T20:49:31.268Z,19.40
2023-02-14T20:51:59.858Z,20.30
2023-02-14T20:54:29.426Z,16.20
2023-02-14T20:56:58.147Z,22.90
2023-02-14T20:59:29.418Z,18.70
2023-02-14T21:01:59.643Z,32.30
2023-02-14T21:04:28.827Z,69.50
2023-02-14T21:06:58.052Z,94.30
2023-02-14T21:09:26.178Z,99.90
2023-02-14T21:11:57.401Z,99.90
2023-02-14T21:14:26.451Z,99.90
2023-02-14T21:16:54.661Z,99.90
2023-02-14T21:19:22.621Z,99.90
2023-02-14T21:21:50.921Z,99.90
2023-02-14T21:24:19.252Z,99.90
2023-02-14T21:26:47.920Z,99.90
2023-02-14T21:29:16.997Z,99.90
2023-02-14T21:31:45.084Z,99.90
2023-02-14T21:34:16.303Z,99.90
2023-02-14T21:36:47.734Z,99.90
2023-02-14T21:39:16.010Z,99.90
2023-02-14T21:41:43.898Z,99.90
2023-02-14T21:44:32.352Z,99.90
2023-02-14T21:47:00.727Z,99.90
2023-02-14T21:49:47.418Z,99.90
2023-02-14T21:52:15.525Z,99.90
2023-02-14T21:54:43.845Z,99.90
2023-02-14T21:57:11.716Z,99.90
2023-02-14T21:59:40.451Z,99.90
2023-02-14T22:02:11.109Z,99.90
2023-02-14T22:04:39.986Z,99.90
2023-02-14T22:07:09.245Z,99.90
2023-02-14T22:09:37.646Z,99.90
2023-02-14T22:12:06.033Z,99.90
2023-02-14T22:14:33.942Z,99.90
2023-02-14T22:17:01.960Z,99.90
2023-02-14T22:19:29.863Z,99.90
2023-02-14T22:21:57.912Z,99.90
2023-02-14T22:24:26.042Z,99.90
2023-02-14T22:26:53.988Z,99.90
2023-02-14T22:29:22.522Z,99.90
2023-02-14T22:31:50.732Z,99.90
2023-02-14T22:34:19.906Z,99.90
2023-02-14T22:36:49.501Z,99.90
2023-02-14T22:39:59.216Z,99.90
2023-02-14T22:42:33.938Z,99.90
2023-02-14T22:45:02.330Z,99.90
2023-02-14T22:47:32.560Z,82.20
2023-02-14T22:50:01.500Z,79.50
2023-02-14T22:52:30.121Z,99.90
2023-02-14T22:54:57.986Z,99.90
2023-02-14T22:57:25.975Z,99.90
2023-02-14T22:59:53.840Z,99.90
2023-02-14T23:02:22.404Z,99.90
2023-02-14T23:04:51.342Z,99.90
2023-02-14T23:07:19.854Z,99.90
2023-02-14T23:09:49.328Z,99.90
2023-02-14T23:12:38.679Z,99.90
2023-02-14T23:15:25.638Z,99.90
2023-02-14T23:18:11.986Z,99.90
2023-02-14T23:20:58.305Z,99.90
2023-02-14T23:23:31.320Z,99.90
2023-02-14T23:26:00.519Z,99.90
2023-02-14T23:28:29.974Z,99.90
2023-02-14T23:31:01.718Z,99.90
2023-02-14T23:33:30.233Z,99.90
2023-02-14T23:36:01.919Z,99.90
2023-02-14T23:38:30.126Z,99.90
2023-02-14T23:41:17.441Z,99.90
2023-02-14T23:43:45.393Z,99.90
2023-02-14T23:46:13.764Z,99.90
2023-02-14T23:48:41.762Z,99.90
2023-02-14T23:51:09.687Z,99.90
2023-02-14T23:53:37.559Z,99.90
2023-02-14T23:56:06.037Z,99.90
2023-02-14T23:58:34.453Z,99.90
